sensor_id;sensor_type;location;lat;lon;timestamp;temperature;humidity
52209;DHT22;38507;53.132;6.394;2024-02-23T00:00:19;5.70;99.90
52209;DHT22;38507;53.132;6.394;2024-02-23T00:02:45;5.40;99.90
52209;DHT22;38507;53.132;6.394;2024-02-23T00:05:13;5.30;99.90
52209;DHT22;38507;53.132;6.394;2024-02-23T00:07:39;4.80;99.90
52209;DHT22;38507;53.132;6.394;2024-02-23T00:10:07;5.50;99.90
52209;DHT22;38507;53.132;6.394;2024-02-23T00:12:33;4.80;99.90
52209;DHT22;38507;53.132;6.394;2024-02-23T00:14:59;5.80;99.90
52209;DHT22;38507;53.132;6.394;2024-02-23T00:17:24;6.00;99.90
52209;DHT22;38507;53.132;6.394;2024-02-23T00:19:50;5.70;99.90
52209;DHT22;38507;53.132;6.394;2024-02-23T00:22:18;5.90;99.90
52209;DHT22;38507;53.132;6.394;2024-02-23T00:24:47;5.60;99.90
52209;DHT22;38507;53.132;6.394;2024-02-23T00:27:12;5.80;99.90
52209;DHT22;38507;53.132;6.394;2024-02-23T00:32:05;4.80;99.90
52209;DHT22;38507;53.132;6.394;2024-02-23T00:34:34;4.70;99.90
52209;DHT22;38507;53.132;6.394;2024-02-23T00:37:02;5.70;99.90
52209;DHT22;38507;53.132;6.394;2024-02-23T00:39:34;4.80;99.90
52209;DHT22;38507;53.132;6.394;2024-02-23T00:42:05;4.80;99.90
52209;DHT22;38507;53.132;6.394;2024-02-23T00:44:31;4.70;99.90
52209;DHT22;38507;53.132;6.394;2024-02-23T00:46:57;5.20;99.90
52209;DHT22;38507;53.132;6.394;2024-02-23T00:49:30;5.30;99.90
52209;DHT22;38507;53.132;6.394;2024-02-23T00:51:56;4.20;99.90
52209;DHT22;38507;53.132;6.394;2024-02-23T00:54:22;4.70;99.90
52209;DHT22;38507;53.132;6.394;2024-02-23T00:56:48;4.50;99.90
52209;DHT22;38507;53.132;6.394;2024-02-23T00:59:15;5.50;99.90
52209;DHT22;38507;53.132;6.394;2024-02-23T01:01:41;4.40;99.90
52209;DHT22;38507;53.132;6.394;2024-02-23T01:04:07;4.40;99.90
52209;DHT22;38507;53.132;6.394;2024-02-23T01:06:33;4.30;99.90
52209;DHT22;38507;53.132;6.394;2024-02-23T01:08:58;5.10;99.90
52209;DHT22;38507;53.132;6.394;2024-02-23T01:11:24;5.20;99.90
52209;DHT22;38507;53.132;6.394;2024-02-23T01:13:53;4.30;99.90
52209;DHT22;38507;53.132;6.394;2024-02-23T01:16:18;5.30;99.90
52209;DHT22;38507;53.132;6.394;2024-02-23T01:18:44;5.10;99.90
52209;DHT22;38507;53.132;6.394;2024-02-23T01:21:10;4.50;99.90
52209;DHT22;38507;53.132;6.394;2024-02-23T01:23:35;4.10;99.90
52209;DHT22;38507;53.132;6.394;2024-02-23T01:26:01;5.20;99.90
52209;DHT22;38507;53.132;6.394;2024-02-23T01:28:28;4.20;99.90
52209;DHT22;38507;53.132;6.394;2024-02-23T01:30:56;4.90;99.90
52209;DHT22;38507;53.132;6.394;2024-02-23T01:33:22;4.20;99.90
52209;DHT22;38507;53.132;6.394;2024-02-23T01:35:48;5.20;99.90
52209;DHT22;38507;53.132;6.394;2024-02-23T01:38:21;5.00;99.90
52209;DHT22;38507;53.132;6.394;2024-02-23T01:40:49;4.10;99.90
52209;DHT22;38507;53.132;6.394;2024-02-23T01:43:15;5.00;99.90
52209;DHT22;38507;53.132;6.394;2024-02-23T01:45:40;4.60;99.90
52209;DHT22;38507;53.132;6.394;2024-02-23T01:48:06;5.50;99.90
52209;DHT22;38507;53.132;6.394;2024-02-23T01:50:32;4.60;99.90
52209;DHT22;38507;53.132;6.394;2024-02-23T01:53:01;5.30;99.90
52209;DHT22;38507;53.132;6.394;2024-02-23T01:55:28;5.60;99.90
52209;DHT22;38507;53.132;6.394;2024-02-23T01:57:54;5.10;99.90
52209;DHT22;38507;53.132;6.394;2024-02-23T02:00:21;5.60;99.90
52209;DHT22;38507;53.132;6.394;2024-02-23T02:02:48;4.60;99.90
52209;DHT22;38507;53.132;6.394;2024-02-23T02:05:14;4.70;99.90
52209;DHT22;38507;53.132;6.394;2024-02-23T02:07:41;4.80;99.90
52209;DHT22;38507;53.132;6.394;2024-02-23T02:10:09;5.60;99.90
52209;DHT22;38507;53.132;6.394;2024-02-23T02:12:35;5.10;99.90
52209;DHT22;38507;53.132;6.394;2024-02-23T02:15:02;5.70;99.90
52209;DHT22;38507;53.132;6.394;2024-02-23T02:17:28;5.20;99.90
52209;DHT22;38507;53.132;6.394;2024-02-23T02:19:54;5.80;99.90
52209;DHT22;38507;53.132;6.394;2024-02-23T02:22:25;5.90;99.90
52209;DHT22;38507;53.132;6.394;2024-02-23T02:24:50;5.90;99.90
52209;DHT22;38507;53.132;6.394;2024-02-23T02:27:16;5.30;99.90
52209;DHT22;38507;53.132;6.394;2024-02-23T02:29:42;5.80;99.90
52209;DHT22;38507;53.132;6.394;2024-02-23T02:32:08;6.00;99.90
52209;DHT22;38507;53.132;6.394;2024-02-23T02:34:34;5.30;99.90
52209;DHT22;38507;53.132;6.394;2024-02-23T02:37:00;5.10;99.90
52209;DHT22;38507;53.132;6.394;2024-02-23T02:39:26;5.70;99.90
52209;DHT22;38507;53.132;6.394;2024-02-23T02:41:52;6.10;99.90
52209;DHT22;38507;53.132;6.394;2024-02-23T02:44:18;5.70;99.90
52209;DHT22;38507;53.132;6.394;2024-02-23T02:46:43;6.30;99.90
52209;DHT22;38507;53.132;6.394;2024-02-23T02:49:11;5.20;99.90
52209;DHT22;38507;53.132;6.394;2024-02-23T02:51:37;6.40;99.90
52209;DHT22;38507;53.132;6.394;2024-02-23T02:54:03;5.30;99.90
52209;DHT22;38507;53.132;6.394;2024-02-23T02:56:28;6.30;99.90
52209;DHT22;38507;53.132;6.394;2024-02-23T02:58:57;5.30;99.90
52209;DHT22;38507;53.132;6.394;2024-02-23T03:01:22;5.60;99.90
52209;DHT22;38507;53.132;6.394;2024-02-23T03:03:51;6.30;99.90
52209;DHT22;38507;53.132;6.394;2024-02-23T03:06:16;5.30;99.90
52209;DHT22;38507;53.132;6.394;2024-02-23T03:08:43;6.40;99.90
52209;DHT22;38507;53.132;6.394;2024-02-23T03:11:08;6.00;99.90
52209;DHT22;38507;53.132;6.394;2024-02-23T03:13:37;6.30;99.90
52209;DHT22;38507;53.132;6.394;2024-02-23T03:16:05;5.70;99.90
52209;DHT22;38507;53.132;6.394;2024-02-23T03:18:31;5.30;99.90
52209;DHT22;38507;53.132;6.394;2024-02-23T03:20:57;5.90;99.90
52209;DHT22;38507;53.132;6.394;2024-02-23T03:23:23;6.00;99.90
52209;DHT22;38507;53.132;6.394;2024-02-23T03:25:48;6.30;99.90
52209;DHT22;38507;53.132;6.394;2024-02-23T03:28:17;5.60;99.90
52209;DHT22;38507;53.132;6.394;2024-02-23T03:30:43;6.00;99.90
52209;DHT22;38507;53.132;6.394;2024-02-23T03:33:09;6.20;99.90
52209;DHT22;38507;53.132;6.394;2024-02-23T03:35:34;5.70;99.90
52209;DHT22;38507;53.132;6.394;2024-02-23T03:38:00;6.10;99.90
52209;DHT22;38507;53.132;6.394;2024-02-23T03:40:25;5.20;99.90
52209;DHT22;38507;53.132;6.394;2024-02-23T03:42:54;6.40;99.90
52209;DHT22;38507;53.132;6.394;2024-02-23T03:45:20;5.70;99.90
52209;DHT22;38507;53.132;6.394;2024-02-23T03:47:46;6.10;99.90
52209;DHT22;38507;53.132;6.394;2024-02-23T03:50:12;6.00;99.90
52209;DHT22;38507;53.132;6.394;2024-02-23T03:52:38;5.20;99.90
52209;DHT22;38507;53.132;6.394;2024-02-23T03:55:04;6.10;99.90
52209;DHT22;38507;53.132;6.394;2024-02-23T03:57:33;5.20;99.90
52209;DHT22;38507;53.132;6.394;2024-02-23T03:59:59;5.20;99.90
52209;DHT22;38507;53.132;6.394;2024-02-23T04:02:24;6.30;99.90
52209;DHT22;38507;53.132;6.394;2024-02-23T04:04:50;5.20;99.90
52209;DHT22;38507;53.132;6.394;2024-02-23T04:07:16;6.30;99.90
52209;DHT22;38507;53.132;6.394;2024-02-23T04:09:42;5.20;99.90
52209;DHT22;38507;53.132;6.394;2024-02-23T04:12:07;5.20;99.90
52209;DHT22;38507;53.132;6.394;2024-02-23T04:14:33;6.20;99.90
52209;DHT22;38507;53.132;6.394;2024-02-23T04:17:03;5.10;99.90
52209;DHT22;38507;53.132;6.394;2024-02-23T04:19:29;5.10;99.90
52209;DHT22;38507;53.132;6.394;2024-02-23T04:21:54;5.10;99.90
52209;DHT22;38507;53.132;6.394;2024-02-23T04:24:20;5.80;99.90
52209;DHT22;38507;53.132;6.394;2024-02-23T04:26:46;6.10;99.90
52209;DHT22;38507;53.132;6.394;2024-02-23T04:29:12;5.90;99.90
52209;DHT22;38507;53.132;6.394;2024-02-23T04:31:38;5.50;99.90
52209;DHT22;38507;53.132;6.394;2024-02-23T04:34:04;5.90;99.90
52209;DHT22;38507;53.132;6.394;2024-02-23T04:36:32;5.20;99.90
52209;DHT22;38507;53.132;6.394;2024-02-23T04:38:58;5.80;99.90
52209;DHT22;38507;53.132;6.394;2024-02-23T04:41:23;5.80;99.90
52209;DHT22;38507;53.132;6.394;2024-02-23T04:43:50;5.80;99.90
52209;DHT22;38507;53.132;6.394;2024-02-23T04:46:16;6.00;99.90
52209;DHT22;38507;53.132;6.394;2024-02-23T04:48:41;5.70;99.90
52209;DHT22;38507;53.132;6.394;2024-02-23T04:51:07;5.60;99.90
52209;DHT22;38507;53.132;6.394;2024-02-23T04:53:38;5.70;99.90
52209;DHT22;38507;53.132;6.394;2024-02-23T04:56:09;5.70;99.90
52209;DHT22;38507;53.132;6.394;2024-02-23T04:58:35;5.30;99.90
52209;DHT22;38507;53.132;6.394;2024-02-23T05:01:01;4.80;99.90
52209;DHT22;38507;53.132;6.394;2024-02-23T05:03:29;4.90;99.90
52209;DHT22;38507;53.132;6.394;2024-02-23T05:05:57;6.00;99.90
52209;DHT22;38507;53.132;6.394;2024-02-23T05:08:23;5.70;99.90
52209;DHT22;38507;53.132;6.394;2024-02-23T05:10:52;4.80;99.90
52209;DHT22;38507;53.132;6.394;2024-02-23T05:13:17;5.50;99.90
52209;DHT22;38507;53.132;6.394;2024-02-23T05:15:43;4.40;99.90
52209;DHT22;38507;53.132;6.394;2024-02-23T05:18:12;5.00;99.90
52209;DHT22;38507;53.132;6.394;2024-02-23T05:20:42;5.00;99.90
52209;DHT22;38507;53.132;6.394;2024-02-23T05:23:08;4.70;99.90
52209;DHT22;38507;53.132;6.394;2024-02-23T05:25:37;5.50;99.90
52209;DHT22;38507;53.132;6.394;2024-02-23T05:28:08;5.60;99.90
52209;DHT22;38507;53.132;6.394;2024-02-23T05:30:39;5.50;99.90
52209;DHT22;38507;53.132;6.394;2024-02-23T05:33:07;5.60;99.90
52209;DHT22;38507;53.132;6.394;2024-02-23T05:35:33;5.40;99.90
52209;DHT22;38507;53.132;6.394;2024-02-23T05:38:00;5.70;99.90
52209;DHT22;38507;53.132;6.394;2024-02-23T05:40:26;5.60;99.90
52209;DHT22;38507;53.132;6.394;2024-02-23T05:42:54;4.60;99.90
52209;DHT22;38507;53.132;6.394;2024-02-23T05:45:20;5.40;99.90
52209;DHT22;38507;53.132;6.394;2024-02-23T05:47:46;5.20;99.90
52209;DHT22;38507;53.132;6.394;2024-02-23T05:50:13;4.60;99.90
52209;DHT22;38507;53.132;6.394;2024-02-23T05:52:39;4.60;99.90
52209;DHT22;38507;53.132;6.394;2024-02-23T05:55:05;4.20;99.90
52209;DHT22;38507;53.132;6.394;2024-02-23T05:57:31;4.60;99.90
52209;DHT22;38507;53.132;6.394;2024-02-23T05:59:59;5.70;99.90
52209;DHT22;38507;53.132;6.394;2024-02-23T06:02:25;5.30;99.90
52209;DHT22;38507;53.132;6.394;2024-02-23T06:04:51;4.60;99.90
52209;DHT22;38507;53.132;6.394;2024-02-23T06:07:17;4.50;99.90
52209;DHT22;38507;53.132;6.394;2024-02-23T06:09:43;4.50;99.90
52209;DHT22;38507;53.132;6.394;2024-02-23T06:12:09;4.50;99.90
52209;DHT22;38507;53.132;6.394;2024-02-23T06:14:35;5.50;99.90
52209;DHT22;38507;53.132;6.394;2024-02-23T06:17:03;5.10;99.90
52209;DHT22;38507;53.132;6.394;2024-02-23T06:19:29;5.60;99.90
52209;DHT22;38507;53.132;6.394;2024-02-23T06:21:55;5.50;99.90
52209;DHT22;38507;53.132;6.394;2024-02-23T06:24:21;5.50;99.90
52209;DHT22;38507;53.132;6.394;2024-02-23T06:26:46;5.10;99.90
52209;DHT22;38507;53.132;6.394;2024-02-23T06:29:14;5.50;99.90
52209;DHT22;38507;53.132;6.394;2024-02-23T06:31:40;4.50;99.90
52209;DHT22;38507;53.132;6.394;2024-02-23T06:34:07;4.50;99.90
52209;DHT22;38507;53.132;6.394;2024-02-23T06:36:35;5.50;99.90
52209;DHT22;38507;53.132;6.394;2024-02-23T06:39:05;3.90;99.90
52209;DHT22;38507;53.132;6.394;2024-02-23T06:41:31;4.60;99.90
52209;DHT22;38507;53.132;6.394;2024-02-23T06:43:57;5.20;99.90
52209;DHT22;38507;53.132;6.394;2024-02-23T06:46:26;4.60;99.90
52209;DHT22;38507;53.132;6.394;2024-02-23T06:48:57;4.20;99.90
52209;DHT22;38507;53.132;6.394;2024-02-23T06:51:23;5.00;99.90
52209;DHT22;38507;53.132;6.394;2024-02-23T06:53:48;5.60;99.90
52209;DHT22;38507;53.132;6.394;2024-02-23T06:56:14;5.60;99.90
52209;DHT22;38507;53.132;6.394;2024-02-23T06:58:43;5.20;99.90
52209;DHT22;38507;53.132;6.394;2024-02-23T07:01:14;5.10;99.90
52209;DHT22;38507;53.132;6.394;2024-02-23T07:03:40;5.40;99.90
52209;DHT22;38507;53.132;6.394;2024-02-23T07:06:08;5.60;99.90
52209;DHT22;38507;53.132;6.394;2024-02-23T07:08:46;5.50;99.90
52209;DHT22;38507;53.132;6.394;2024-02-23T07:11:12;4.50;99.90
52209;DHT22;38507;53.132;6.394;2024-02-23T07:13:43;5.10;99.90
52209;DHT22;38507;53.132;6.394;2024-02-23T07:16:09;5.20;99.90
52209;DHT22;38507;53.132;6.394;2024-02-23T07:18:38;4.50;99.90
52209;DHT22;38507;53.132;6.394;2024-02-23T07:21:17;4.60;99.90
52209;DHT22;38507;53.132;6.394;2024-02-23T07:23:49;5.00;99.90
52209;DHT22;38507;53.132;6.394;2024-02-23T07:26:20;4.60;99.90
52209;DHT22;38507;53.132;6.394;2024-02-23T07:28:57;4.10;99.90
52209;DHT22;38507;53.132;6.394;2024-02-23T07:31:25;5.40;99.90
52209;DHT22;38507;53.132;6.394;2024-02-23T07:33:56;5.60;99.90
52209;DHT22;38507;53.132;6.394;2024-02-23T07:36:22;4.40;99.90
52209;DHT22;38507;53.132;6.394;2024-02-23T07:38:47;5.60;99.90
52209;DHT22;38507;53.132;6.394;2024-02-23T07:41:14;5.20;99.90
52209;DHT22;38507;53.132;6.394;2024-02-23T07:43:59;5.20;99.90
52209;DHT22;38507;53.132;6.394;2024-02-23T07:46:28;5.50;99.90
52209;DHT22;38507;53.132;6.394;2024-02-23T07:49:00;4.60;99.90
52209;DHT22;38507;53.132;6.394;2024-02-23T07:51:26;4.30;99.90
52209;DHT22;38507;53.132;6.394;2024-02-23T07:53:59;5.70;99.90
52209;DHT22;38507;53.132;6.394;2024-02-23T07:56:29;5.80;99.90
52209;DHT22;38507;53.132;6.394;2024-02-23T07:59:02;5.10;99.90
52209;DHT22;38507;53.132;6.394;2024-02-23T08:01:28;5.80;99.90
52209;DHT22;38507;53.132;6.394;2024-02-23T08:03:55;5.00;99.90
52209;DHT22;38507;53.132;6.394;2024-02-23T08:06:27;5.70;99.90
52209;DHT22;38507;53.132;6.394;2024-02-23T08:08:52;5.90;99.90
52209;DHT22;38507;53.132;6.394;2024-02-23T08:11:24;5.50;99.90
52209;DHT22;38507;53.132;6.394;2024-02-23T08:13:50;5.80;99.90
52209;DHT22;38507;53.132;6.394;2024-02-23T08:16:19;6.10;99.90
52209;DHT22;38507;53.132;6.394;2024-02-23T08:18:44;6.00;99.90
52209;DHT22;38507;53.132;6.394;2024-02-23T08:21:16;5.20;99.90
52209;DHT22;38507;53.132;6.394;2024-02-23T08:23:43;5.10;99.90
52209;DHT22;38507;53.132;6.394;2024-02-23T08:26:14;5.90;99.90
52209;DHT22;38507;53.132;6.394;2024-02-23T08:28:43;6.10;99.90
52209;DHT22;38507;53.132;6.394;2024-02-23T08:31:09;6.20;99.90
52209;DHT22;38507;53.132;6.394;2024-02-23T08:33:43;6.10;99.90
52209;DHT22;38507;53.132;6.394;2024-02-23T08:36:11;5.60;99.90
52209;DHT22;38507;53.132;6.394;2024-02-23T08:38:37;6.20;99.90
52209;DHT22;38507;53.132;6.394;2024-02-23T08:41:06;5.90;99.90
52209;DHT22;38507;53.132;6.394;2024-02-23T08:43:31;5.20;99.90
52209;DHT22;38507;53.132;6.394;2024-02-23T08:46:00;6.00;99.90
52209;DHT22;38507;53.132;6.394;2024-02-23T08:48:32;5.30;99.90
52209;DHT22;38507;53.132;6.394;2024-02-23T08:51:19;5.40;99.90
52209;DHT22;38507;53.132;6.394;2024-02-23T08:53:54;5.20;99.90
52209;DHT22;38507;53.132;6.394;2024-02-23T08:56:34;6.10;99.90
52209;DHT22;38507;53.132;6.394;2024-02-23T08:59:12;6.50;99.90
52209;DHT22;38507;53.132;6.394;2024-02-23T09:01:38;6.40;99.90
52209;DHT22;38507;53.132;6.394;2024-02-23T09:04:03;6.20;99.90
52209;DHT22;38507;53.132;6.394;2024-02-23T09:06:32;5.70;99.90
52209;DHT22;38507;53.132;6.394;2024-02-23T09:09:01;6.20;99.90
52209;DHT22;38507;53.132;6.394;2024-02-23T09:11:32;6.50;99.90
52209;DHT22;38507;53.132;6.394;2024-02-23T09:14:01;6.50;99.90
52209;DHT22;38507;53.132;6.394;2024-02-23T09:16:32;6.60;99.90
52209;DHT22;38507;53.132;6.394;2024-02-23T09:19:01;6.50;99.90
52209;DHT22;38507;53.132;6.394;2024-02-23T09:21:32;5.80;99.90
52209;DHT22;38507;53.132;6.394;2024-02-23T09:24:01;6.70;99.90
52209;DHT22;38507;53.132;6.394;2024-02-23T09:26:26;6.90;99.90
52209;DHT22;38507;53.132;6.394;2024-02-23T09:28:52;5.40;99.90
52209;DHT22;38507;53.132;6.394;2024-02-23T09:31:18;6.60;99.90
52209;DHT22;38507;53.132;6.394;2024-02-23T09:33:59;6.00;99.90
52209;DHT22;38507;53.132;6.394;2024-02-23T09:36:25;6.00;99.90
52209;DHT22;38507;53.132;6.394;2024-02-23T09:39:18;6.20;99.90
52209;DHT22;38507;53.132;6.394;2024-02-23T09:41:45;6.00;99.90
52209;DHT22;38507;53.132;6.394;2024-02-23T09:44:15;6.80;99.90
52209;DHT22;38507;53.132;6.394;2024-02-23T09:46:43;5.60;99.90
52209;DHT22;38507;53.132;6.394;2024-02-23T09:49:14;6.20;99.90
52209;DHT22;38507;53.132;6.394;2024-02-23T09:51:40;7.30;99.90
52209;DHT22;38507;53.132;6.394;2024-02-23T09:54:10;6.90;99.90
52209;DHT22;38507;53.132;6.394;2024-02-23T09:56:39;6.10;99.90
52209;DHT22;38507;53.132;6.394;2024-02-23T09:59:04;6.20;99.90
52209;DHT22;38507;53.132;6.394;2024-02-23T10:01:33;6.50;99.90
52209;DHT22;38507;53.132;6.394;2024-02-23T10:04:01;6.80;99.90
52209;DHT22;38507;53.132;6.394;2024-02-23T10:06:30;6.80;99.90
52209;DHT22;38507;53.132;6.394;2024-02-23T10:08:59;6.90;99.90
52209;DHT22;38507;53.132;6.394;2024-02-23T10:11:25;8.00;99.90
52209;DHT22;38507;53.132;6.394;2024-02-23T10:13:54;8.10;99.90
52209;DHT22;38507;53.132;6.394;2024-02-23T10:16:20;7.90;99.90
52209;DHT22;38507;53.132;6.394;2024-02-23T10:18:51;7.00;99.90
52209;DHT22;38507;53.132;6.394;2024-02-23T10:21:30;7.80;99.90
52209;DHT22;38507;53.132;6.394;2024-02-23T10:24:01;6.90;99.90
52209;DHT22;38507;53.132;6.394;2024-02-23T10:26:30;7.80;99.90
52209;DHT22;38507;53.132;6.394;2024-02-23T10:29:12;6.80;99.90
52209;DHT22;38507;53.132;6.394;2024-02-23T10:31:38;7.80;99.90
52209;DHT22;38507;53.132;6.394;2024-02-23T10:34:11;7.70;99.90
52209;DHT22;38507;53.132;6.394;2024-02-23T10:36:53;7.40;99.90
52209;DHT22;38507;53.132;6.394;2024-02-23T10:39:26;7.50;99.90
52209;DHT22;38507;53.132;6.394;2024-02-23T10:42:03;7.20;99.90
52209;DHT22;38507;53.132;6.394;2024-02-23T10:44:32;6.70;99.90
52209;DHT22;38507;53.132;6.394;2024-02-23T10:47:13;7.50;99.90
52209;DHT22;38507;53.132;6.394;2024-02-23T10:50:14;7.50;99.90
52209;DHT22;38507;53.132;6.394;2024-02-23T10:53:31;6.70;99.90
52209;DHT22;38507;53.132;6.394;2024-02-23T10:56:04;7.20;99.90
52209;DHT22;38507;53.132;6.394;2024-02-23T10:58:30;6.70;99.90
52209;DHT22;38507;53.132;6.394;2024-02-23T11:01:02;7.40;99.90
52209;DHT22;38507;53.132;6.394;2024-02-23T11:03:32;7.20;99.90
52209;DHT22;38507;53.132;6.394;2024-02-23T11:06:01;6.90;99.90
52209;DHT22;38507;53.132;6.394;2024-02-23T11:08:30;6.60;99.90
52209;DHT22;38507;53.132;6.394;2024-02-23T11:11:07;6.80;99.90
52209;DHT22;38507;53.132;6.394;2024-02-23T11:13:37;6.60;99.90
52209;DHT22;38507;53.132;6.394;2024-02-23T11:16:06;7.20;99.90
52209;DHT22;38507;53.132;6.394;2024-02-23T11:18:39;6.50;99.90
52209;DHT22;38507;53.132;6.394;2024-02-23T11:21:08;7.10;99.90
52209;DHT22;38507;53.132;6.394;2024-02-23T11:23:44;7.20;99.90
52209;DHT22;38507;53.132;6.394;2024-02-23T11:26:11;6.40;99.90
52209;DHT22;38507;53.132;6.394;2024-02-23T11:28:51;6.80;99.90
52209;DHT22;38507;53.132;6.394;2024-02-23T11:31:24;6.40;99.90
52209;DHT22;38507;53.132;6.394;2024-02-23T11:33:54;7.20;99.90
52209;DHT22;38507;53.132;6.394;2024-02-23T11:36:30;6.50;99.90
52209;DHT22;38507;53.132;6.394;2024-02-23T11:39:00;6.30;99.90
52209;DHT22;38507;53.132;6.394;2024-02-23T11:41:29;7.00;99.90
52209;DHT22;38507;53.132;6.394;2024-02-23T11:43:58;7.30;99.90
52209;DHT22;38507;53.132;6.394;2024-02-23T11:46:24;6.40;99.90
52209;DHT22;38507;53.132;6.394;2024-02-23T11:48:50;6.60;99.90
52209;DHT22;38507;53.132;6.394;2024-02-23T11:51:20;7.40;99.90
52209;DHT22;38507;53.132;6.394;2024-02-23T11:53:47;7.10;99.90
52209;DHT22;38507;53.132;6.394;2024-02-23T11:56:13;7.00;99.90
52209;DHT22;38507;53.132;6.394;2024-02-23T11:58:42;6.60;99.90
52209;DHT22;38507;53.132;6.394;2024-02-23T12:01:08;6.60;99.90
52209;DHT22;38507;53.132;6.394;2024-02-23T12:03:36;7.50;99.90
52209;DHT22;38507;53.132;6.394;2024-02-23T12:06:09;6.60;99.90
52209;DHT22;38507;53.132;6.394;2024-02-23T12:08:35;6.60;99.90
52209;DHT22;38507;53.132;6.394;2024-02-23T12:11:05;6.60;99.90
52209;DHT22;38507;53.132;6.394;2024-02-23T12:13:31;6.90;99.90
52209;DHT22;38507;53.132;6.394;2024-02-23T12:16:00;7.30;99.90
52209;DHT22;38507;53.132;6.394;2024-02-23T12:18:26;7.60;99.90
52209;DHT22;38507;53.132;6.394;2024-02-23T12:21:12;6.90;99.90
52209;DHT22;38507;53.132;6.394;2024-02-23T12:23:43;7.50;99.90
52209;DHT22;38507;53.132;6.394;2024-02-23T12:26:09;6.70;99.90
52209;DHT22;38507;53.132;6.394;2024-02-23T12:28:36;6.90;99.90
52209;DHT22;38507;53.132;6.394;2024-02-23T12:31:12;7.00;99.90
52209;DHT22;38507;53.132;6.394;2024-02-23T12:33:39;7.30;99.90
52209;DHT22;38507;53.132;6.394;2024-02-23T12:36:13;7.30;99.90
52209;DHT22;38507;53.132;6.394;2024-02-23T12:38:41;7.60;99.90
52209;DHT22;38507;53.132;6.394;2024-02-23T12:41:07;7.70;99.90
52209;DHT22;38507;53.132;6.394;2024-02-23T12:43:33;6.80;99.90
52209;DHT22;38507;53.132;6.394;2024-02-23T12:45:59;7.70;99.90
52209;DHT22;38507;53.132;6.394;2024-02-23T12:48:26;6.40;99.90
52209;DHT22;38507;53.132;6.394;2024-02-23T12:50:52;6.80;99.90
52209;DHT22;38507;53.132;6.394;2024-02-23T12:53:36;7.70;99.90
52209;DHT22;38507;53.132;6.394;2024-02-23T12:56:10;6.90;99.90
52209;DHT22;38507;53.132;6.394;2024-02-23T12:58:44;7.00;99.90
52209;DHT22;38507;53.132;6.394;2024-02-23T13:01:12;7.80;99.90
52209;DHT22;38507;53.132;6.394;2024-02-23T13:03:39;7.50;99.90
52209;DHT22;38507;53.132;6.394;2024-02-23T13:06:07;7.00;99.90
52209;DHT22;38507;53.132;6.394;2024-02-23T13:08:33;7.60;99.90
52209;DHT22;38507;53.132;6.394;2024-02-23T13:11:05;8.00;99.90
52209;DHT22;38507;53.132;6.394;2024-02-23T13:13:33;7.10;99.90
52209;DHT22;38507;53.132;6.394;2024-02-23T13:15:59;8.00;99.90
52209;DHT22;38507;53.132;6.394;2024-02-23T13:18:24;7.20;99.90
52209;DHT22;38507;53.132;6.394;2024-02-23T13:20:50;7.20;99.90
52209;DHT22;38507;53.132;6.394;2024-02-23T13:23:16;7.30;99.90
52209;DHT22;38507;53.132;6.394;2024-02-23T13:25:43;7.30;99.90
52209;DHT22;38507;53.132;6.394;2024-02-23T13:28:08;8.10;99.90
52209;DHT22;38507;53.132;6.394;2024-02-23T13:30:35;8.20;99.90
52209;DHT22;38507;53.132;6.394;2024-02-23T13:33:01;8.10;99.90
52209;DHT22;38507;53.132;6.394;2024-02-23T13:35:34;8.20;99.90
52209;DHT22;38507;53.132;6.394;2024-02-23T13:38:00;8.30;99.90
52209;DHT22;38507;53.132;6.394;2024-02-23T13:40:29;8.40;99.90
52209;DHT22;38507;53.132;6.394;2024-02-23T13:43:03;8.30;99.90
52209;DHT22;38507;53.132;6.394;2024-02-23T13:45:29;7.40;99.90
52209;DHT22;38507;53.132;6.394;2024-02-23T13:48:01;7.40;99.90
52209;DHT22;38507;53.132;6.394;2024-02-23T13:50:27;8.10;99.90
52209;DHT22;38507;53.132;6.394;2024-02-23T13:53:00;8.00;99.90
52209;DHT22;38507;53.132;6.394;2024-02-23T13:55:26;7.40;99.90
52209;DHT22;38507;53.132;6.394;2024-02-23T13:57:51;8.00;99.90
52209;DHT22;38507;53.132;6.394;2024-02-23T14:00:18;7.60;99.90
52209;DHT22;38507;53.132;6.394;2024-02-23T14:02:44;7.40;99.90
52209;DHT22;38507;53.132;6.394;2024-02-23T14:05:16;7.40;99.90
52209;DHT22;38507;53.132;6.394;2024-02-23T14:07:43;7.40;99.90
52209;DHT22;38507;53.132;6.394;2024-02-23T14:10:09;7.60;99.90
52209;DHT22;38507;53.132;6.394;2024-02-23T14:12:35;8.30;99.90
52209;DHT22;38507;53.132;6.394;2024-02-23T14:15:01;8.60;99.90
52209;DHT22;38507;53.132;6.394;2024-02-23T14:17:27;7.70;99.90
52209;DHT22;38507;53.132;6.394;2024-02-23T14:19:52;8.30;99.90
52209;DHT22;38507;53.132;6.394;2024-02-23T14:22:18;8.40;99.90
52209;DHT22;38507;53.132;6.394;2024-02-23T14:24:44;8.50;99.90
52209;DHT22;38507;53.132;6.394;2024-02-23T14:27:10;8.60;99.90
52209;DHT22;38507;53.132;6.394;2024-02-23T14:29:35;7.90;99.90
52209;DHT22;38507;53.132;6.394;2024-02-23T14:32:04;7.90;99.90
52209;DHT22;38507;53.132;6.394;2024-02-23T14:34:30;7.80;99.90
52209;DHT22;38507;53.132;6.394;2024-02-23T14:36:58;7.80;99.90
52209;DHT22;38507;53.132;6.394;2024-02-23T14:39:24;8.50;99.90
52209;DHT22;38507;53.132;6.394;2024-02-23T14:41:50;8.40;99.90
52209;DHT22;38507;53.132;6.394;2024-02-23T14:44:15;7.50;99.90
52209;DHT22;38507;53.132;6.394;2024-02-23T14:46:41;7.70;99.90
52209;DHT22;38507;53.132;6.394;2024-02-23T14:49:07;7.00;99.90
52209;DHT22;38507;53.132;6.394;2024-02-23T14:51:32;6.70;99.90
52209;DHT22;38507;53.132;6.394;2024-02-23T14:54:00;7.30;99.90
52209;DHT22;38507;53.132;6.394;2024-02-23T14:56:27;6.80;99.90
52209;DHT22;38507;53.132;6.394;2024-02-23T14:58:53;6.70;99.90
52209;DHT22;38507;53.132;6.394;2024-02-23T15:01:19;7.60;99.90
52209;DHT22;38507;53.132;6.394;2024-02-23T15:03:44;7.50;99.90
52209;DHT22;38507;53.132;6.394;2024-02-23T15:06:10;6.50;99.90
52209;DHT22;38507;53.132;6.394;2024-02-23T15:08:36;6.30;99.90
52209;DHT22;38507;53.132;6.394;2024-02-23T15:11:02;6.60;99.90
52209;DHT22;38507;53.132;6.394;2024-02-23T15:13:28;6.30;99.90
52209;DHT22;38507;53.132;6.394;2024-02-23T15:15:54;6.30;99.90
52209;DHT22;38507;53.132;6.394;2024-02-23T15:18:21;6.70;99.90
52209;DHT22;38507;53.132;6.394;2024-02-23T15:20:47;7.10;99.90
52209;DHT22;38507;53.132;6.394;2024-02-23T15:23:13;7.10;99.90
52209;DHT22;38507;53.132;6.394;2024-02-23T15:25:39;6.50;99.90
52209;DHT22;38507;53.132;6.394;2024-02-23T15:28:05;6.30;99.90
52209;DHT22;38507;53.132;6.394;2024-02-23T15:30:30;6.30;99.90
52209;DHT22;38507;53.132;6.394;2024-02-23T15:32:57;6.30;99.90
52209;DHT22;38507;53.132;6.394;2024-02-23T15:35:23;6.90;99.90
52209;DHT22;38507;53.132;6.394;2024-02-23T15:37:51;7.20;99.90
52209;DHT22;38507;53.132;6.394;2024-02-23T15:40:17;7.00;99.90
52209;DHT22;38507;53.132;6.394;2024-02-23T15:42:43;6.40;99.90
52209;DHT22;38507;53.132;6.394;2024-02-23T15:45:09;6.70;99.90
52209;DHT22;38507;53.132;6.394;2024-02-23T15:47:34;6.40;99.90
52209;DHT22;38507;53.132;6.394;2024-02-23T15:50:00;7.30;99.90
52209;DHT22;38507;53.132;6.394;2024-02-23T15:52:26;6.80;99.90